createdAt,value
2022-08-17T00:02:25.961Z,11.05
2022-08-17T00:05:35.542Z,13.97
2022-08-17T00:08:40.988Z,13.53
2022-08-17T00:12:41.997Z,16.73
2022-08-17T00:15:10.322Z,12.35
2022-08-17T00:19:02.183Z,11.75
2022-08-17T00:22:29.584Z,13.43
2022-08-17T00:25:05.820Z,13.77
2022-08-17T00:28:07.474Z,10.95
2022-08-17T00:31:10.636Z,11.55
2022-08-17T00:34:12.350Z,12.98
2022-08-17T00:37:14.005Z,12.77
2022-08-17T00:40:16.613Z,10.70
2022-08-17T00:43:46.201Z,12.90
2022-08-17T00:46:48.081Z,10.48
2022-08-17T00:49:49.733Z,12.80
2022-08-17T00:52:56.031Z,13.13
2022-08-17T00:56:01.683Z,13.40
2022-08-17T00:59:07.143Z,12.68
2022-08-17T01:02:12.569Z,11.73
2022-08-17T01:05:21.397Z,14.25
2022-08-17T01:08:27.193Z,12.57
2022-08-17T01:11:31.263Z,13.73
2022-08-17T01:14:33.052Z,12.60
2022-08-17T01:17:36.019Z,11.23
2022-08-17T01:20:49.379Z,12.85
2022-08-17T01:23:51.053Z,14.63
2022-08-17T01:26:53.116Z,13.38
2022-08-17T01:30:57.060Z,11.77
2022-08-17T01:33:29.554Z,13.23
2022-08-17T01:36:31.202Z,16.02
2022-08-17T01:39:37.758Z,12.17
2022-08-17T01:42:51.859Z,12.23
2022-08-17T01:46:03.811Z,13.80
2022-08-17T01:49:08.580Z,12.15
2022-08-17T01:52:11.504Z,12.75
2022-08-17T01:55:16.172Z,12.03
2022-08-17T01:58:19.081Z,12.83
2022-08-17T02:01:24.958Z,15.95
2022-08-17T02:04:26.857Z,13.30
2022-08-17T02:07:28.619Z,12.23
2022-08-17T02:10:34.215Z,12.30
2022-08-17T02:13:36.037Z,14.45
2022-08-17T02:16:40.227Z,13.80
2022-08-17T02:19:41.945Z,14.75
2022-08-17T02:22:46.223Z,12.13
2022-08-17T02:25:48.703Z,14.03
2022-08-17T02:28:51.135Z,14.85
2022-08-17T02:31:53.393Z,14.02
2022-08-17T02:34:57.006Z,13.15
2022-08-17T02:37:58.615Z,13.40
2022-08-17T02:41:00.210Z,14.20
2022-08-17T02:44:04.365Z,14.60
2022-08-17T02:47:06.633Z,14.50
2022-08-17T02:50:09.738Z,13.95
2022-08-17T02:53:11.472Z,13.73
2022-08-17T02:56:13.129Z,13.73
2022-08-17T02:59:14.794Z,13.47
2022-08-17T03:02:16.422Z,14.38
2022-08-17T03:05:21.790Z,15.27
2022-08-17T03:08:23.896Z,14.40
2022-08-17T03:11:25.645Z,15.10
2022-08-17T03:14:27.260Z,13.52
2022-08-17T03:17:28.948Z,13.82
2022-08-17T03:20:33.192Z,14.85
2022-08-17T03:23:41.051Z,14.02
2022-08-17T03:26:42.952Z,14.33
2022-08-17T03:29:44.779Z,13.43
2022-08-17T03:32:49.142Z,13.73
2022-08-17T03:35:51.346Z,13.10
2022-08-17T03:38:53.054Z,14.25
2022-08-17T03:42:32.513Z,13.53
2022-08-17T03:45:56.908Z,13.32
2022-08-17T03:49:17.226Z,13.80
2022-08-17T03:52:37.492Z,14.93
2022-08-17T03:55:57.684Z,12.63
2022-08-17T03:58:59.340Z,12.67
2022-08-17T04:02:09.083Z,15.35
2022-08-17T04:05:10.873Z,14.25
2022-08-17T04:08:12.685Z,14.48
2022-08-17T04:11:14.317Z,12.65
2022-08-17T04:14:16.251Z,13.83
2022-08-17T04:17:17.908Z,12.88
2022-08-17T04:20:21.490Z,14.32
2022-08-17T04:23:23.117Z,12.23
2022-08-17T04:26:52.740Z,15.45
2022-08-17T04:29:54.480Z,12.70
2022-08-17T04:33:08.711Z,13.23
2022-08-17T04:36:12.833Z,13.85
2022-08-17T04:39:14.507Z,12.93
2022-08-17T04:42:19.001Z,15.68
2022-08-17T04:45:20.656Z,14.30
2022-08-17T04:48:33.366Z,13.88
2022-08-17T04:51:54.570Z,13.23
2022-08-17T04:54:58.522Z,14.10
2022-08-17T04:58:00.180Z,15.43
2022-08-17T05:01:01.952Z,14.53
2022-08-17T05:04:32.155Z,13.23
2022-08-17T05:07:32.365Z,13.18
2022-08-17T05:10:37.139Z,12.35
2022-08-17T05:13:50.296Z,13.82
2022-08-17T05:16:52.152Z,17.33
2022-08-17T05:19:53.796Z,13.02
2022-08-17T05:23:01.777Z,14.02
2022-08-17T05:26:04.124Z,16.88
2022-08-17T05:29:11.070Z,14.18
2022-08-17T05:32:38.224Z,17.67
2022-08-17T05:35:40.370Z,15.77
2022-08-17T05:38:42.450Z,15.80
2022-08-17T05:41:46.644Z,15.88
2022-08-17T05:44:48.539Z,14.85
2022-08-17T05:47:50.182Z,16.30
2022-08-17T05:51:07.083Z,18.07
2022-08-17T05:54:26.794Z,14.25
2022-08-17T05:57:54.135Z,17.33
2022-08-17T06:01:09.788Z,13.40
2022-08-17T06:04:20.772Z,15.90
2022-08-17T06:07:32.398Z,13.73
2022-08-17T06:11:04.845Z,16.90
2022-08-17T06:14:23.912Z,16.05
2022-08-17T06:17:29.898Z,13.80
2022-08-17T06:20:52.306Z,14.63
2022-08-17T06:24:00.706Z,17.13
2022-08-17T06:27:13.147Z,15.75
2022-08-17T06:30:20.289Z,13.07
2022-08-17T06:33:26.864Z,12.75
2022-08-17T06:36:53.966Z,14.57
2022-08-17T06:40:19.509Z,13.07
2022-08-17T06:43:36.175Z,14.35
2022-08-17T06:46:43.619Z,13.60
2022-08-17T06:49:59.259Z,15.40
2022-08-17T06:53:13.421Z,13.17
2022-08-17T06:56:54.338Z,15.00
2022-08-17T07:00:19.029Z,13.38
2022-08-17T07:03:38.946Z,13.98
2022-08-17T07:06:54.509Z,11.85
2022-08-17T07:09:59.981Z,11.47
2022-08-17T07:13:16.713Z,11.57
2022-08-17T07:16:32.486Z,11.73
2022-08-17T07:19:39.705Z,10.45
2022-08-17T07:22:59.854Z,12.02
2022-08-17T07:26:06.870Z,13.03
2022-08-17T07:29:14.072Z,13.73
2022-08-17T07:32:20.136Z,13.77
2022-08-17T07:35:44.051Z,11.93
2022-08-17T07:38:57.577Z,10.25
2022-08-17T07:42:04.429Z,11.47
2022-08-17T07:45:27.665Z,11.87
2022-08-17T07:48:29.365Z,12.50
2022-08-17T07:51:35.434Z,11.93
2022-08-17T07:54:39.784Z,9.85
2022-08-17T07:57:56.825Z,10.93
2022-08-17T08:01:18.358Z,10.33
2022-08-17T08:05:00.227Z,10.68
2022-08-17T08:08:03.190Z,11.60
2022-08-17T08:11:09.346Z,11.25
2022-08-17T08:14:39.701Z,8.73
2022-08-17T08:17:58.062Z,10.90
2022-08-17T08:21:24.489Z,9.73
2022-08-17T08:24:43.020Z,10.40
2022-08-17T08:27:56.789Z,9.38
2022-08-17T08:31:42.081Z,9.50
2022-08-17T08:35:01.339Z,12.07
2022-08-17T08:38:16.911Z,10.57
2022-08-17T08:41:44.914Z,9.20
2022-08-17T08:45:00.503Z,9.15
2022-08-17T08:48:22.992Z,9.07
2022-08-17T08:51:57.335Z,8.23
2022-08-17T08:55:08.032Z,8.82
2022-08-17T08:58:32.212Z,9.00
2022-08-17T09:01:54.243Z,8.23
2022-08-17T09:05:14.354Z,10.43
2022-08-17T09:08:25.689Z,9.00
2022-08-17T09:12:01.442Z,8.43
2022-08-17T09:15:15.892Z,8.93
2022-08-17T09:19:01.090Z,9.48
2022-08-17T09:22:18.271Z,10.10
2022-08-17T09:25:27.950Z,7.97
2022-08-17T09:28:37.983Z,10.45
2022-08-17T09:32:15.015Z,7.80
2022-08-17T09:35:16.710Z,7.40
2022-08-17T09:38:28.020Z,8.40
2022-08-17T09:41:49.484Z,9.77
2022-08-17T09:45:22.041Z,10.45
2022-08-17T09:48:31.770Z,12.93
2022-08-17T09:51:43.718Z,10.27
2022-08-17T09:54:46.870Z,16.70
2022-08-17T09:58:20.273Z,10.23
2022-08-17T10:01:40.108Z,9.82
2022-08-17T10:05:06.734Z,8.70
2022-08-17T10:08:27.837Z,10.63
2022-08-17T10:12:11.885Z,7.53
2022-08-17T10:15:22.437Z,10.83
2022-08-17T10:18:36.511Z,6.93
2022-08-17T10:22:01.096Z,7.32
2022-08-17T10:25:54.288Z,8.30
2022-08-17T10:29:09.792Z,8.03
2022-08-17T10:32:22.729Z,8.37
2022-08-17T10:35:48.948Z,9.20
2022-08-17T10:39:32.408Z,8.02
2022-08-17T10:42:43.857Z,8.32
2022-08-17T10:45:48.460Z,7.23
2022-08-17T10:49:19.142Z,7.00
2022-08-17T10:52:20.776Z,8.73
2022-08-17T10:55:25.752Z,9.60
2022-08-17T10:58:38.907Z,6.65
2022-08-17T11:01:43.422Z,6.80
2022-08-17T11:05:00.177Z,6.53
2022-08-17T11:08:25.754Z,8.27
2022-08-17T11:11:36.424Z,8.43
2022-08-17T11:15:07.227Z,8.35
2022-08-17T11:18:32.834Z,7.97
2022-08-17T11:21:52.635Z,8.53
2022-08-17T11:24:54.697Z,7.40
2022-08-17T11:28:07.801Z,8.23
2022-08-17T11:31:44.123Z,8.25
2022-08-17T11:34:48.808Z,9.83
2022-08-17T11:37:59.907Z,8.50
2022-08-17T11:41:20.502Z,6.97
2022-08-17T11:44:43.470Z,9.43
2022-08-17T11:48:27.342Z,7.38
2022-08-17T11:52:00.129Z,8.77
2022-08-17T11:55:31.850Z,7.20
2022-08-17T11:58:29.096Z,9.95
2022-08-17T12:01:31.468Z,8.35
2022-08-17T12:04:35.957Z,6.93
2022-08-17T12:07:51.893Z,8.57
2022-08-17T12:10:59.724Z,7.50
2022-08-17T12:14:01.668Z,7.50
2022-08-17T12:17:22.445Z,8.15
2022-08-17T12:20:40.444Z,7.82
2022-08-17T12:23:48.547Z,9.00
2022-08-17T12:26:58.239Z,6.33
2022-08-17T12:30:10.044Z,7.03
2022-08-17T12:33:25.273Z,7.55
2022-08-17T12:36:31.907Z,8.88
2022-08-17T12:39:34.411Z,6.20
2022-08-17T12:42:39.486Z,7.63
2022-08-17T12:45:41.812Z,8.00
2022-08-17T12:48:54.980Z,8.60
2022-08-17T12:52:04.822Z,7.20
2022-08-17T12:55:11.498Z,8.53
2022-08-17T12:58:19.721Z,7.63
2022-08-17T13:01:23.421Z,7.07
2022-08-17T13:04:26.627Z,7.78
2022-08-17T13:07:35.315Z,8.20
2022-08-17T13:10:37.795Z,7.37
2022-08-17T13:13:42.834Z,7.43
2022-08-17T13:16:51.373Z,9.82
2022-08-17T13:19:53.964Z,9.98
2022-08-17T13:23:01.091Z,17.27
2022-08-17T13:26:07.119Z,8.67
2022-08-17T13:29:24.033Z,7.73
2022-08-17T13:32:46.427Z,10.93
2022-08-17T13:35:50.483Z,9.02
2022-08-17T13:38:52.351Z,10.30
2022-08-17T13:41:56.161Z,9.30
2022-08-17T13:44:58.626Z,9.17
2022-08-17T13:48:14.445Z,8.23
2022-08-17T13:51:24.319Z,9.70
2022-08-17T13:54:35.559Z,10.80
2022-08-17T13:57:37.464Z,9.17
2022-08-17T14:00:40.383Z,7.87
2022-08-17T14:03:42.144Z,9.35
2022-08-17T14:06:52.892Z,8.65
2022-08-17T14:09:57.739Z,9.30
2022-08-17T14:12:59.624Z,9.90
2022-08-17T14:16:01.352Z,8.23
2022-08-17T14:19:03.188Z,7.40
2022-08-17T14:22:08.914Z,8.30
2022-08-17T14:25:12.621Z,6.63
2022-08-17T14:28:14.294Z,9.77
2022-08-17T14:31:15.986Z,7.23
2022-08-17T14:34:18.353Z,9.13
2022-08-17T14:37:21.261Z,10.02
2022-08-17T14:40:24.974Z,9.32
2022-08-17T14:43:28.275Z,10.43
2022-08-17T14:46:33.416Z,8.47
2022-08-17T14:49:35.074Z,7.45
2022-08-17T14:52:37.371Z,8.13
2022-08-17T14:55:40.738Z,7.65
2022-08-17T14:58:42.697Z,6.80
2022-08-17T15:01:47.769Z,7.70
2022-08-17T15:04:50.532Z,7.75
2022-08-17T15:07:53.625Z,8.82
2022-08-17T15:10:55.385Z,7.20
2022-08-17T15:13:57.029Z,7.40
2022-08-17T15:16:59.677Z,10.03
2022-08-17T15:20:01.384Z,8.00
2022-08-17T15:23:03.077Z,7.53
2022-08-17T15:26:06.110Z,11.63
2022-08-17T15:29:09.415Z,9.70
2022-08-17T15:32:25.070Z,7.80
2022-08-17T15:35:30.530Z,7.05
2022-08-17T15:38:39.710Z,6.82
2022-08-17T15:41:41.567Z,6.85
2022-08-17T15:44:44.533Z,8.20
2022-08-17T15:47:46.607Z,7.07
2022-08-17T15:50:48.386Z,8.82
2022-08-17T15:53:56.662Z,8.15
2022-08-17T15:56:59.426Z,10.93
2022-08-17T16:00:02.782Z,9.00
2022-08-17T16:04:01.451Z,15.63
2022-08-17T16:06:36.306Z,9.40
2022-08-17T16:09:38.493Z,8.55
2022-08-17T16:12:40.782Z,9.38
2022-08-17T16:15:42.928Z,6.40
2022-08-17T16:18:44.586Z,8.90
2022-08-17T16:21:46.172Z,15.70
2022-08-17T16:24:47.916Z,20.63
2022-08-17T16:28:00.582Z,8.95
2022-08-17T16:31:02.223Z,9.00
2022-08-17T16:34:17.856Z,7.33
2022-08-17T16:37:20.550Z,8.50
2022-08-17T16:40:23.955Z,9.75
2022-08-17T16:43:25.848Z,7.90
2022-08-17T16:46:29.222Z,8.77
2022-08-17T16:49:36.815Z,8.50
2022-08-17T16:52:40.533Z,9.65
2022-08-17T16:55:42.729Z,10.80
2022-08-17T16:58:44.595Z,9.23
2022-08-17T17:01:47.825Z,13.40
2022-08-17T17:04:55.176Z,11.57
2022-08-17T17:08:09.105Z,12.13
2022-08-17T17:11:15.322Z,10.20
2022-08-17T17:14:40.047Z,8.50
2022-08-17T17:17:46.486Z,9.80
2022-08-17T17:20:55.526Z,10.83
2022-08-17T17:24:03.993Z,9.40
2022-08-17T17:27:08.513Z,13.50
2022-08-17T17:30:12.949Z,11.55
2022-08-17T17:33:31.129Z,10.43
2022-08-17T17:36:41.683Z,10.03
2022-08-17T17:39:51.625Z,10.00
2022-08-17T17:43:02.301Z,9.93
2022-08-17T17:46:26.873Z,8.50
2022-08-17T17:49:39.602Z,10.00
2022-08-17T17:52:50.449Z,9.27
2022-08-17T17:55:55.201Z,13.10
2022-08-17T17:59:15.954Z,10.23
2022-08-17T18:02:52.131Z,10.63
2022-08-17T18:06:18.959Z,10.27
2022-08-17T18:09:53.671Z,10.83
2022-08-17T18:13:13.855Z,12.38
2022-08-17T18:16:16.352Z,15.85
2022-08-17T18:19:20.694Z,12.40
2022-08-17T18:22:24.336Z,10.63
2022-08-17T18:25:47.957Z,11.97
2022-08-17T18:28:51.623Z,10.52
2022-08-17T18:32:24.601Z,8.82
2022-08-17T18:35:30.604Z,9.73
2022-08-17T18:38:37.984Z,8.50
2022-08-17T18:41:42.958Z,10.27
2022-08-17T18:44:45.330Z,7.28
2022-08-17T18:47:55.442Z,14.77
2022-08-17T18:51:35.742Z,8.00
2022-08-17T18:55:14.586Z,8.87
2022-08-17T18:58:21.328Z,8.07
2022-08-17T19:01:23.052Z,9.43
2022-08-17T19:05:17.191Z,11.88
2022-08-17T19:08:33.432Z,8.52
2022-08-17T19:11:35.677Z,9.17
2022-08-17T19:14:37.382Z,10.60
2022-08-17T19:17:51.246Z,8.43
2022-08-17T19:21:06.432Z,9.55
2022-08-17T19:24:14.195Z,11.63
2022-08-17T19:27:34.775Z,10.63
2022-08-17T19:30:43.252Z,11.53
2022-08-17T19:33:48.044Z,12.25
2022-08-17T19:37:04.646Z,9.82
2022-08-17T19:40:51.140Z,9.43
2022-08-17T19:43:57.584Z,13.43
2022-08-17T19:47:36.679Z,13.33
2022-08-17T19:51:00.925Z,11.32
2022-08-17T19:54:36.177Z,12.55
2022-08-17T19:57:47.933Z,12.90
2022-08-17T20:00:51.707Z,7.57
2022-08-17T20:04:06.733Z,10.13
2022-08-17T20:07:15.147Z,9.50
2022-08-17T20:10:55.388Z,11.50
2022-08-17T20:14:07.437Z,10.50
2022-08-17T20:17:11.330Z,13.03
2022-08-17T20:20:19.957Z,8.73
2022-08-17T20:23:30.809Z,10.57
2022-08-17T20:26:55.908Z,8.13
2022-08-17T20:30:11.698Z,14.40
2022-08-17T20:33:37.498Z,14.33
2022-08-17T20:36:58.851Z,12.03
2022-08-17T20:40:00.538Z,12.23
2022-08-17T20:43:30.076Z,13.25
2022-08-17T20:46:37.969Z,11.82
2022-08-17T20:49:53.241Z,9.50
2022-08-17T20:52:57.871Z,9.60
2022-08-17T20:55:59.558Z,13.80
2022-08-17T20:59:01.231Z,9.45
2022-08-17T21:02:06.662Z,12.55
2022-08-17T21:05:53.404Z,13.17
2022-08-17T21:09:15.686Z,15.30
2022-08-17T21:12:41.231Z,14.43
2022-08-17T21:15:52.449Z,17.38
2022-08-17T21:19:10.141Z,14.38
2022-08-17T21:22:43.388Z,14.30
2022-08-17T21:26:03.887Z,14.60
2022-08-17T21:29:31.135Z,14.57
2022-08-17T21:32:37.761Z,14.90
2022-08-17T21:36:05.164Z,12.85
2022-08-17T21:39:13.471Z,14.27
2022-08-17T21:42:15.363Z,14.37
2022-08-17T21:45:30.889Z,12.52
2022-08-17T21:48:43.024Z,14.05
2022-08-17T21:51:49.921Z,11.55
2022-08-17T21:54:58.466Z,12.77
2022-08-17T21:58:19.320Z,15.77
2022-08-17T22:01:24.636Z,15.07
2022-08-17T22:04:38.278Z,11.95
2022-08-17T22:07:47.678Z,13.25
2022-08-17T22:10:51.467Z,13.73
2022-08-17T22:14:00.575Z,16.30
2022-08-17T22:17:16.639Z,14.20
2022-08-17T22:20:20.614Z,13.32
2022-08-17T22:24:02.455Z,12.98
2022-08-17T22:27:10.138Z,12.10
2022-08-17T22:30:34.466Z,11.73
2022-08-17T22:33:38.281Z,12.10
2022-08-17T22:36:44.075Z,11.77
2022-08-17T22:39:45.840Z,11.73
2022-08-17T22:42:47.726Z,11.20
2022-08-17T22:45:53.677Z,11.50
2022-08-17T22:48:59.527Z,12.65
2022-08-17T22:52:04.829Z,12.63
2022-08-17T22:55:36.589Z,12.35
2022-08-17T22:59:10.726Z,13.33
2022-08-17T23:02:23.732Z,13.17
2022-08-17T23:05:26.236Z,13.57
2022-08-17T23:08:27.961Z,12.63
2022-08-17T23:11:49.208Z,13.70
2022-08-17T23:14:58.446Z,13.53
2022-08-17T23:18:04.862Z,12.63
2022-08-17T23:21:07.747Z,12.52
2022-08-17T23:24:09.922Z,13.40
2022-08-17T23:27:12.438Z,12.55
2022-08-17T23:30:17.827Z,13.93
2022-08-17T23:33:26.799Z,16.50
2022-08-17T23:36:29.444Z,14.20
2022-08-17T23:39:31.197Z,14.73
2022-08-17T23:42:33.717Z,15.20
2022-08-17T23:45:35.354Z,17.50
2022-08-17T23:48:37.783Z,13.83
2022-08-17T23:51:44.001Z,16.25
2022-08-17T23:54:47.328Z,15.40
2022-08-17T23:57:49.102Z,14.75
